createdAt,value
2019-05-03T00:00:48.901Z,99.99
2019-05-03T00:01:48.831Z,99.99
2019-05-03T00:03:42.505Z,99.99
2019-05-03T00:04:42.245Z,99.99
2019-05-03T00:06:34.547Z,99.99
2019-05-03T00:07:34.341Z,99.99
2019-05-03T00:09:27.179Z,99.99
2019-05-03T00:10:27.041Z,99.99
2019-05-03T00:12:21.985Z,99.99
2019-05-03T00:13:21.755Z,99.99
2019-05-03T00:15:12.614Z,99.99
2019-05-03T00:16:12.550Z,99.99
2019-05-03T00:18:05.317Z,99.99
2019-05-03T00:19:05.246Z,99.99
2019-05-03T00:20:58.095Z,99.99
2019-05-03T00:21:58.001Z,99.99
2019-05-03T00:23:52.296Z,99.99
2019-05-03T00:25:04.563Z,99.99
2019-05-03T00:26:43.570Z,99.99
2019-05-03T00:27:43.511Z,99.99
2019-05-03T00:29:36.356Z,99.99
2019-05-03T00:30:36.256Z,99.99
2019-05-03T00:32:29.061Z,99.99
2019-05-03T00:33:28.976Z,99.99
2019-05-03T00:35:22.593Z,99.99
2019-05-03T00:36:22.400Z,99.99
2019-05-03T00:38:14.538Z,99.99
2019-05-03T00:39:14.404Z,99.99
2019-05-03T00:41:07.209Z,99.99
2019-05-03T00:42:07.159Z,99.99
2019-05-03T00:44:02.087Z,99.99
2019-05-03T00:45:02.128Z,99.99
2019-05-03T00:46:52.610Z,99.99
2019-05-03T00:47:52.772Z,99.99
2019-05-03T00:49:45.467Z,99.99
2019-05-03T00:50:45.283Z,99.99
2019-05-03T00:52:38.079Z,99.99
2019-05-03T00:53:37.989Z,99.99
2019-05-03T00:55:32.628Z,99.99
2019-05-03T00:56:32.134Z,99.99
2019-05-03T00:58:23.531Z,99.99
2019-05-03T00:59:23.447Z,99.99
2019-05-03T01:01:16.225Z,99.99
2019-05-03T01:02:16.144Z,99.99
2019-05-03T01:04:08.951Z,99.99
2019-05-03T01:05:08.899Z,99.99
2019-05-03T01:07:02.258Z,99.99
2019-05-03T01:08:01.949Z,99.99
2019-05-03T01:09:54.393Z,99.99
2019-05-03T01:10:54.352Z,99.99
2019-05-03T01:12:47.183Z,99.99
2019-05-03T01:13:47.032Z,99.99
2019-05-03T01:15:40.033Z,99.99
2019-05-03T01:16:39.761Z,99.99
2019-05-03T01:18:32.587Z,99.74
2019-05-03T01:19:32.626Z,99.55
2019-05-03T01:21:25.253Z,99.84
2019-05-03T01:22:25.188Z,99.84
2019-05-03T01:24:18.327Z,99.46
2019-05-03T01:25:29.173Z,99.46
2019-05-03T01:27:12.341Z,99.55
2019-05-03T01:28:12.252Z,98.79
2019-05-03T01:30:03.458Z,98.41
2019-05-03T01:31:03.350Z,97.27
2019-05-03T01:32:56.162Z,95.94
2019-05-03T01:33:56.082Z,95.75
2019-05-03T01:35:48.914Z,94.13
2019-05-03T01:36:48.840Z,94.03
2019-05-03T01:38:42.327Z,94.42
2019-05-03T01:39:42.110Z,94.37
2019-05-03T01:41:34.418Z,94.74
2019-05-03T01:42:34.288Z,94.84
2019-05-03T01:44:27.149Z,94.74
2019-05-03T01:45:27.059Z,95.22
2019-05-03T01:47:21.842Z,96.08
2019-05-03T01:48:21.597Z,95.03
2019-05-03T01:50:12.705Z,95.98
2019-05-03T01:51:12.452Z,95.79
2019-05-03T01:53:05.249Z,95.89
2019-05-03T01:54:05.157Z,95.12
2019-05-03T01:55:54.416Z,95.03
2019-05-03T01:56:58.905Z,95.22
2019-05-03T01:58:47.095Z,95.03
2019-05-03T01:59:47.033Z,95.60
2019-05-03T02:01:42.072Z,96.17
2019-05-03T02:02:41.847Z,95.22
2019-05-03T02:04:32.586Z,96.17
2019-05-03T02:05:32.452Z,95.98
2019-05-03T02:07:25.288Z,94.93
2019-05-03T02:08:25.268Z,94.93
2019-05-03T02:10:18.040Z,95.22
2019-05-03T02:11:17.934Z,95.79
2019-05-03T02:13:12.279Z,95.12
2019-05-03T02:14:12.373Z,95.22
2019-05-03T02:16:03.476Z,95.03
2019-05-03T02:17:03.357Z,94.37
2019-05-03T02:18:56.138Z,94.08
2019-05-03T02:19:56.042Z,94.65
2019-05-03T02:21:48.843Z,95.79
2019-05-03T02:22:48.760Z,94.27
2019-05-03T02:24:42.262Z,95.03
2019-05-03T02:25:41.995Z,95.03
2019-05-03T02:27:34.349Z,95.41
2019-05-03T02:28:34.295Z,95.22
2019-05-03T02:30:27.124Z,95.41
2019-05-03T02:31:27.028Z,94.89
2019-05-03T02:33:19.792Z,95.03
2019-05-03T02:34:19.717Z,95.75
2019-05-03T02:36:13.658Z,96.12
2019-05-03T02:37:13.846Z,96.12
2019-05-03T02:39:05.636Z,96.98
2019-05-03T02:40:05.153Z,96.98
2019-05-03T02:42:02.925Z,97.55
2019-05-03T02:42:57.920Z,97.64
2019-05-03T02:44:50.664Z,96.89
2019-05-03T02:45:50.566Z,98.41
2019-05-03T02:47:43.407Z,98.03
2019-05-03T02:48:45.688Z,98.41
2019-05-03T02:50:36.249Z,99.45
2019-05-03T02:51:36.202Z,99.16
2019-05-03T02:53:28.943Z,99.64
2019-05-03T02:54:28.823Z,99.99
2019-05-03T02:56:22.408Z,99.99
2019-05-03T02:57:21.533Z,99.99
2019-05-03T02:59:15.836Z,99.99
2019-05-03T03:00:16.243Z,99.99
2019-05-03T03:02:07.088Z,99.99
2019-05-03T03:03:06.943Z,99.99
2019-05-03T03:04:59.773Z,99.99
2019-05-03T03:05:59.709Z,99.99
2019-05-03T03:07:52.480Z,99.99
2019-05-03T03:08:52.369Z,99.99
2019-05-03T03:10:45.679Z,99.99
2019-05-03T03:11:45.765Z,99.99
2019-05-03T03:13:37.922Z,99.99
2019-05-03T03:14:37.867Z,99.99
2019-05-03T03:16:30.571Z,99.99
2019-05-03T03:17:30.528Z,99.99
2019-05-03T03:19:25.963Z,99.99
2019-05-03T03:20:25.409Z,99.99
2019-05-03T03:22:16.083Z,99.99
2019-05-03T03:23:18.025Z,99.99
2019-05-03T03:25:08.769Z,99.99
2019-05-03T03:26:08.703Z,99.99
2019-05-03T03:28:01.626Z,99.99
2019-05-03T03:29:01.412Z,99.99
2019-05-03T03:30:57.616Z,99.99
2019-05-03T03:31:58.170Z,99.99
2019-05-03T03:33:47.739Z,99.99
2019-05-03T03:34:54.564Z,99.99
2019-05-03T03:36:57.943Z,99.99
2019-05-03T03:37:39.557Z,99.99
2019-05-03T03:39:32.277Z,99.99
2019-05-03T03:40:32.193Z,99.99
2019-05-03T03:42:25.265Z,99.99
2019-05-03T03:43:25.952Z,99.99
2019-05-03T03:45:17.670Z,99.99
2019-05-03T03:46:17.598Z,99.99
2019-05-03T03:48:10.419Z,99.99
2019-05-03T03:49:10.385Z,99.99
2019-05-03T03:51:05.046Z,99.99
2019-05-03T03:52:05.840Z,99.99
2019-05-03T03:53:55.873Z,99.99
2019-05-03T03:54:55.745Z,99.99
2019-05-03T03:56:59.270Z,99.99
2019-05-03T03:57:48.437Z,99.99
2019-05-03T03:59:41.225Z,99.99
2019-05-03T04:00:41.138Z,99.99
2019-05-03T04:02:35.353Z,99.99
2019-05-03T04:03:36.140Z,99.99
2019-05-03T04:05:26.661Z,99.99
2019-05-03T04:06:27.013Z,99.99
2019-05-03T04:08:19.366Z,99.99
2019-05-03T04:09:19.292Z,99.99
2019-05-03T04:11:12.103Z,99.99
2019-05-03T04:12:12.026Z,99.99
2019-05-03T04:14:05.437Z,99.99
2019-05-03T04:15:05.698Z,99.99
2019-05-03T04:16:57.611Z,99.99
2019-05-03T04:17:57.485Z,99.99
2019-05-03T04:19:50.273Z,99.99
2019-05-03T04:20:50.204Z,99.99
2019-05-03T04:22:45.282Z,99.99
2019-05-03T04:23:42.860Z,99.99
2019-05-03T04:25:35.849Z,99.99
2019-05-03T04:26:35.861Z,99.99
2019-05-03T04:28:28.453Z,99.99
2019-05-03T04:29:28.301Z,99.99
2019-05-03T04:31:21.164Z,99.99
2019-05-03T04:32:24.856Z,99.99
2019-05-03T04:34:16.223Z,99.99
2019-05-03T04:35:16.324Z,99.99
2019-05-03T04:37:06.483Z,99.99
2019-05-03T04:38:06.382Z,99.99
2019-05-03T04:39:59.204Z,99.99
2019-05-03T04:40:59.095Z,99.99
2019-05-03T04:42:51.945Z,99.99
2019-05-03T04:43:51.886Z,99.99
2019-05-03T04:45:45.597Z,99.99
2019-05-03T04:46:46.513Z,99.99
2019-05-03T04:48:37.347Z,99.99
2019-05-03T04:49:37.271Z,99.99
2019-05-03T04:51:30.065Z,99.99
2019-05-03T04:52:30.030Z,99.99
2019-05-03T04:54:25.042Z,99.99
2019-05-03T04:55:22.679Z,99.99
2019-05-03T04:57:17.578Z,99.99
2019-05-03T04:58:16.157Z,99.99
2019-05-03T05:00:11.257Z,99.99
2019-05-03T05:01:08.045Z,99.99
2019-05-03T05:03:00.843Z,99.99
2019-05-03T05:04:00.741Z,99.99
2019-05-03T05:05:55.494Z,99.99
2019-05-03T05:06:55.499Z,99.99
2019-05-03T05:08:46.239Z,99.99
2019-05-03T05:09:46.181Z,99.99
2019-05-03T05:11:38.957Z,99.99
2019-05-03T05:12:38.965Z,99.99
2019-05-03T05:14:31.648Z,99.99
2019-05-03T05:15:31.575Z,99.99
2019-05-03T05:17:26.303Z,99.99
2019-05-03T05:18:26.365Z,99.99
2019-05-03T05:20:17.040Z,99.99
2019-05-03T05:21:16.968Z,99.99
2019-05-03T05:23:09.751Z,99.99
2019-05-03T05:24:09.655Z,99.99
2019-05-03T05:26:02.520Z,99.99
2019-05-03T05:27:02.344Z,99.60
2019-05-03T05:28:55.101Z,92.88
2019-05-03T05:29:55.429Z,89.73
2019-05-03T05:31:47.824Z,84.72
2019-05-03T05:32:47.715Z,82.90
2019-05-03T05:34:41.058Z,81.13
2019-05-03T05:35:40.467Z,80.69
2019-05-03T05:37:35.118Z,77.92
2019-05-03T05:38:34.669Z,77.00
2019-05-03T05:40:25.976Z,77.09
2019-05-03T05:41:25.876Z,77.19
2019-05-03T05:43:18.668Z,75.31
2019-05-03T05:44:18.595Z,74.49
2019-05-03T05:46:11.386Z,72.92
2019-05-03T05:47:11.299Z,73.69
2019-05-03T05:49:04.346Z,72.73
2019-05-03T05:50:04.971Z,72.80
2019-05-03T05:51:56.915Z,71.56
2019-05-03T05:52:56.812Z,70.83
2019-05-03T05:54:49.566Z,68.95
2019-05-03T05:55:49.539Z,68.95
2019-05-03T05:57:42.302Z,69.48
2019-05-03T05:58:42.228Z,68.72
2019-05-03T06:00:35.927Z,69.20
2019-05-03T06:01:35.306Z,68.56
2019-05-03T06:03:27.749Z,67.73
2019-05-03T06:04:27.661Z,67.28
2019-05-03T06:06:20.467Z,69.64
2019-05-03T06:07:20.374Z,69.29
2019-05-03T06:09:15.282Z,67.60
2019-05-03T06:10:14.693Z,66.29
2019-05-03T06:12:05.928Z,68.14
2019-05-03T06:13:05.848Z,67.99
2019-05-03T06:14:58.662Z,68.52
2019-05-03T06:15:58.591Z,68.30
2019-05-03T06:17:51.505Z,68.87
2019-05-03T06:18:51.325Z,68.87
2019-05-03T06:20:45.170Z,67.79
2019-05-03T06:21:44.827Z,66.19
2019-05-03T06:23:36.824Z,65.62
2019-05-03T06:24:36.749Z,64.95
2019-05-03T06:26:29.591Z,64.02
2019-05-03T06:27:29.462Z,64.05
2019-05-03T06:29:22.308Z,66.26
2019-05-03T06:30:22.225Z,65.36
2019-05-03T06:32:15.381Z,69.54
2019-05-03T06:33:14.936Z,70.59
2019-05-03T06:35:07.742Z,72.39
2019-05-03T06:36:07.707Z,72.60
2019-05-03T06:38:00.550Z,68.59
2019-05-03T06:39:00.407Z,68.33
2019-05-03T06:40:54.439Z,72.02
2019-05-03T06:41:54.689Z,70.47
2019-05-03T06:43:48.680Z,69.79
2019-05-03T06:44:45.843Z,71.80
2019-05-03T06:46:38.627Z,70.56
2019-05-03T06:47:40.425Z,71.57
2019-05-03T06:49:31.351Z,69.73
2019-05-03T06:50:31.313Z,69.60
2019-05-03T06:52:25.470Z,69.03
2019-05-03T06:53:25.406Z,66.83
2019-05-03T06:55:16.989Z,67.54
2019-05-03T06:56:19.280Z,66.26
2019-05-03T06:58:09.578Z,63.25
2019-05-03T06:59:09.535Z,63.29
2019-05-03T07:01:04.525Z,64.95
2019-05-03T07:02:02.346Z,64.31
2019-05-03T07:03:55.188Z,67.43
2019-05-03T07:04:56.202Z,70.27
2019-05-03T07:06:47.823Z,69.73
2019-05-03T07:07:47.764Z,70.07
2019-05-03T07:09:40.562Z,71.83
2019-05-03T07:10:40.528Z,70.11
2019-05-03T07:12:35.315Z,70.23
2019-05-03T07:13:34.534Z,71.57
2019-05-03T07:15:26.013Z,70.46
2019-05-03T07:16:25.916Z,69.57
2019-05-03T07:18:18.726Z,66.29
2019-05-03T07:19:18.692Z,65.36
2019-05-03T07:21:11.453Z,63.29
2019-05-03T07:22:11.407Z,62.13
2019-05-03T07:24:05.407Z,63.32
2019-05-03T07:25:04.707Z,64.63
2019-05-03T07:26:59.090Z,65.14
2019-05-03T07:27:56.838Z,64.40
2019-05-03T07:29:49.621Z,64.25
2019-05-03T07:30:49.547Z,63.89
2019-05-03T07:32:42.352Z,62.36
2019-05-03T07:33:42.284Z,63.93
2019-05-03T07:35:35.403Z,67.02
2019-05-03T07:36:35.593Z,68.01
2019-05-03T07:38:27.799Z,68.35
2019-05-03T07:39:27.915Z,67.05
2019-05-03T07:41:20.539Z,66.25
2019-05-03T07:42:20.407Z,67.65
2019-05-03T07:44:15.051Z,67.24
2019-05-03T07:45:14.857Z,66.35
2019-05-03T07:47:05.974Z,65.08
2019-05-03T07:48:05.979Z,64.98
2019-05-03T07:49:58.814Z,62.26
2019-05-03T07:50:58.676Z,61.72
2019-05-03T07:52:51.444Z,59.61
2019-05-03T07:53:51.382Z,59.74
2019-05-03T07:55:45.667Z,59.06
2019-05-03T07:56:44.578Z,57.92
2019-05-03T07:58:36.927Z,57.92
2019-05-03T07:59:36.872Z,58.01
2019-05-03T08:01:29.689Z,58.62
2019-05-03T08:02:29.646Z,58.49
2019-05-03T08:04:22.398Z,60.06
2019-05-03T08:05:22.313Z,61.08
2019-05-03T08:07:22.312Z,60.89
2019-05-03T08:08:15.171Z,61.05
2019-05-03T08:10:07.955Z,58.33
2019-05-03T08:11:07.792Z,58.30
2019-05-03T08:13:00.565Z,56.73
2019-05-03T08:14:00.480Z,55.10
2019-05-03T08:15:55.658Z,54.04
2019-05-03T08:16:54.743Z,54.25
2019-05-03T08:18:46.047Z,53.13
2019-05-03T08:19:45.948Z,53.58
2019-05-03T08:21:39.146Z,53.72
2019-05-03T08:22:38.679Z,54.49
2019-05-03T08:24:31.592Z,55.45
2019-05-03T08:25:31.470Z,54.61
2019-05-03T08:27:25.127Z,53.23
2019-05-03T08:28:24.631Z,52.62
2019-05-03T08:30:17.029Z,54.37
2019-05-03T08:31:16.990Z,55.58
2019-05-03T08:33:09.735Z,58.88
2019-05-03T08:34:09.681Z,59.17
2019-05-03T08:36:04.742Z,58.98
2019-05-03T08:37:02.501Z,57.76
2019-05-03T08:38:56.420Z,56.48
2019-05-03T08:39:55.279Z,55.74
2019-05-03T08:41:48.062Z,54.56
2019-05-03T08:42:47.938Z,54.94
2019-05-03T08:44:40.760Z,55.87
2019-05-03T08:45:40.709Z,57.57
2019-05-03T08:47:34.465Z,55.96
2019-05-03T08:48:35.477Z,54.64
2019-05-03T08:50:26.252Z,52.70
2019-05-03T08:51:26.225Z,51.38
2019-05-03T08:53:18.998Z,50.10
2019-05-03T08:54:18.908Z,51.04
2019-05-03T08:56:11.702Z,52.38
2019-05-03T08:57:11.647Z,53.34
2019-05-03T08:59:04.776Z,54.53
2019-05-03T09:00:05.265Z,55.80
2019-05-03T09:01:57.155Z,55.71
2019-05-03T09:02:57.064Z,56.71
2019-05-03T09:04:49.873Z,57.31
2019-05-03T09:05:49.809Z,57.18
2019-05-03T09:07:44.751Z,54.74
2019-05-03T09:08:42.532Z,53.06
2019-05-03T09:10:35.416Z,52.91
2019-05-03T09:11:36.844Z,54.25
2019-05-03T09:13:28.105Z,51.35
2019-05-03T09:14:38.772Z,50.90
2019-05-03T09:16:21.069Z,47.60
2019-05-03T09:17:20.892Z,47.41
2019-05-03T09:19:14.767Z,47.29
2019-05-03T09:20:15.534Z,48.66
2019-05-03T09:22:06.552Z,49.93
2019-05-03T09:23:06.497Z,51.16
2019-05-03T09:24:59.586Z,53.96
2019-05-03T09:25:59.473Z,54.99
2019-05-03T09:27:52.397Z,59.05
2019-05-03T09:28:52.158Z,60.48
2019-05-03T09:30:45.021Z,61.12
2019-05-03T09:31:44.956Z,61.98
2019-05-03T09:33:37.840Z,62.55
2019-05-03T09:34:37.795Z,62.74
2019-05-03T09:36:30.657Z,62.62
2019-05-03T09:37:30.560Z,63.06
2019-05-03T09:39:24.508Z,59.36
2019-05-03T09:40:24.571Z,56.22
2019-05-03T09:42:16.215Z,55.90
2019-05-03T09:43:16.342Z,55.83
2019-05-03T09:45:08.984Z,54.78
2019-05-03T09:46:08.923Z,53.58
2019-05-03T09:48:01.703Z,54.19
2019-05-03T09:49:12.551Z,52.89
2019-05-03T09:50:55.577Z,51.50
2019-05-03T09:51:54.893Z,51.04
2019-05-03T09:53:47.278Z,51.11
2019-05-03T09:54:47.143Z,52.34
2019-05-03T09:56:53.745Z,52.14
2019-05-03T09:57:39.882Z,52.05
2019-05-03T09:59:34.875Z,52.03
2019-05-03T10:00:32.680Z,52.25
2019-05-03T10:02:25.558Z,49.10
2019-05-03T10:03:25.463Z,47.94
2019-05-03T10:05:18.253Z,47.89
2019-05-03T10:06:18.188Z,48.33
2019-05-03T10:08:11.361Z,50.92
2019-05-03T10:09:11.066Z,51.04
2019-05-03T10:11:05.568Z,49.89
2019-05-03T10:12:05.509Z,48.52
2019-05-03T10:13:56.598Z,49.48
2019-05-03T10:14:56.469Z,50.49
2019-05-03T10:16:49.398Z,50.92
2019-05-03T10:17:49.327Z,52.52
2019-05-03T10:19:42.385Z,52.20
2019-05-03T10:20:42.112Z,52.75
2019-05-03T10:22:34.972Z,54.67
2019-05-03T10:23:35.843Z,54.48
2019-05-03T10:25:27.586Z,54.32
2019-05-03T10:26:27.542Z,53.96
2019-05-03T10:28:20.489Z,54.68
2019-05-03T10:29:20.383Z,53.11
2019-05-03T10:31:13.206Z,48.90
2019-05-03T10:32:15.026Z,48.81
2019-05-03T10:34:06.052Z,49.79
2019-05-03T10:35:05.911Z,48.71
2019-05-03T10:36:59.001Z,48.04
2019-05-03T10:37:58.623Z,49.77
2019-05-03T10:39:51.422Z,49.43
2019-05-03T10:40:51.344Z,50.08
2019-05-03T10:42:44.569Z,50.89
2019-05-03T10:43:45.114Z,52.33
2019-05-03T10:45:36.949Z,52.81
2019-05-03T10:46:36.984Z,53.38
2019-05-03T10:48:29.728Z,53.45
2019-05-03T10:49:29.656Z,53.36
2019-05-03T10:51:24.792Z,55.73
2019-05-03T10:52:22.865Z,56.17
2019-05-03T10:54:15.304Z,57.48
2019-05-03T10:55:15.957Z,57.77
2019-05-03T10:57:07.999Z,58.06
2019-05-03T10:58:07.890Z,58.15
2019-05-03T11:00:00.691Z,58.28
2019-05-03T11:01:00.608Z,58.37
2019-05-03T11:02:55.076Z,56.65
2019-05-03T11:03:54.547Z,55.88
2019-05-03T11:05:46.180Z,54.71
2019-05-03T11:06:46.185Z,55.47
2019-05-03T11:08:38.939Z,57.48
2019-05-03T11:09:48.700Z,57.20
2019-05-03T11:11:31.730Z,57.39
2019-05-03T11:12:31.583Z,57.87
2019-05-03T11:14:25.368Z,56.62
2019-05-03T11:15:25.909Z,56.17
2019-05-03T11:17:17.043Z,54.07
2019-05-03T11:18:17.014Z,54.96
2019-05-03T11:20:09.808Z,55.24
2019-05-03T11:21:09.725Z,56.10
2019-05-03T11:23:02.486Z,54.93
2019-05-03T11:24:02.447Z,55.98
2019-05-03T11:25:55.530Z,55.79
2019-05-03T11:26:55.850Z,56.15
2019-05-03T11:28:47.916Z,56.53
2019-05-03T11:29:47.844Z,56.40
2019-05-03T11:31:40.685Z,56.60
2019-05-03T11:32:40.599Z,58.03
2019-05-03T11:34:35.329Z,57.55
2019-05-03T11:35:35.065Z,58.32
2019-05-03T11:37:26.570Z,59.44
2019-05-03T11:38:26.132Z,59.24
2019-05-03T11:40:19.073Z,59.72
2019-05-03T11:41:29.583Z,60.10
2019-05-03T11:43:11.649Z,60.20
2019-05-03T11:44:11.601Z,61.54
2019-05-03T11:46:04.789Z,60.96
2019-05-03T11:47:05.819Z,61.25
2019-05-03T11:48:57.505Z,61.19
2019-05-03T11:49:57.424Z,60.90
2019-05-03T11:51:50.233Z,60.13
2019-05-03T11:52:50.187Z,60.23
2019-05-03T11:54:45.078Z,59.66
2019-05-03T11:55:46.108Z,59.56
2019-05-03T11:57:35.956Z,59.75
2019-05-03T11:58:35.726Z,59.47
2019-05-03T12:00:28.494Z,59.66
2019-05-03T12:01:28.461Z,59.84
2019-05-03T12:03:21.331Z,58.83
2019-05-03T12:04:21.176Z,58.73
2019-05-03T12:06:15.676Z,60.06
2019-05-03T12:07:15.321Z,60.83
2019-05-03T12:09:06.966Z,59.69
2019-05-03T12:10:16.459Z,59.88
2019-05-03T12:11:59.683Z,59.78
2019-05-03T12:12:59.624Z,59.88
2019-05-03T12:14:52.656Z,60.45
2019-05-03T12:15:52.547Z,61.12
2019-05-03T12:17:54.147Z,61.05
2019-05-03T12:18:52.922Z,60.51
2019-05-03T12:20:39.530Z,57.64
2019-05-03T12:21:39.178Z,57.35
2019-05-03T12:23:32.184Z,56.10
2019-05-03T12:24:31.369Z,55.24
2019-05-03T12:26:27.127Z,56.68
2019-05-03T12:27:24.406Z,56.27
2019-05-03T12:29:16.427Z,57.23
2019-05-03T12:30:16.331Z,57.23
2019-05-03T12:32:09.087Z,57.42
2019-05-03T12:33:09.034Z,56.65
2019-05-03T12:35:01.839Z,57.99
2019-05-03T12:36:01.778Z,59.05
2019-05-03T12:37:55.601Z,58.95
2019-05-03T12:38:54.898Z,58.56
2019-05-03T12:40:47.323Z,58.09
2019-05-03T12:41:48.213Z,58.28
2019-05-03T12:43:40.097Z,60.00
2019-05-03T12:44:40.018Z,59.01
2019-05-03T12:46:32.777Z,59.84
2019-05-03T12:47:34.697Z,60.52
2019-05-03T12:49:25.494Z,61.54
2019-05-03T12:50:25.423Z,61.85
2019-05-03T12:52:18.835Z,62.30
2019-05-03T12:53:18.187Z,62.24
2019-05-03T12:55:11.095Z,60.77
2019-05-03T12:56:13.454Z,61.35
2019-05-03T12:58:05.903Z,61.54
2019-05-03T12:59:05.745Z,61.82
2019-05-03T13:00:56.588Z,62.21
2019-05-03T13:01:56.491Z,63.03
2019-05-03T13:03:49.321Z,63.89
2019-05-03T13:04:51.978Z,64.28
2019-05-03T13:06:42.158Z,65.96
2019-05-03T13:07:42.001Z,66.72
2019-05-03T13:09:35.766Z,66.95
2019-05-03T13:10:34.765Z,66.76
2019-05-03T13:12:27.722Z,66.41
2019-05-03T13:13:27.421Z,66.41
2019-05-03T13:15:20.379Z,65.58
2019-05-03T13:16:20.242Z,64.82
2019-05-03T13:18:15.553Z,63.67
2019-05-03T13:19:15.090Z,63.76
2019-05-03T13:21:06.307Z,64.62
2019-05-03T13:22:05.876Z,64.82
2019-05-03T13:23:58.679Z,64.25
2019-05-03T13:24:58.608Z,63.67
2019-05-03T13:26:51.382Z,64.62
2019-05-03T13:27:51.323Z,64.34
2019-05-03T13:29:45.347Z,64.22
2019-05-03T13:30:45.321Z,65.26
2019-05-03T13:32:36.860Z,64.12
2019-05-03T13:33:36.787Z,65.17
2019-05-03T13:35:29.577Z,64.50
2019-05-03T13:36:29.499Z,64.56
2019-05-03T13:38:22.295Z,64.65
2019-05-03T13:39:22.224Z,64.94
2019-05-03T13:41:15.044Z,65.52
2019-05-03T13:42:14.966Z,66.38
2019-05-03T13:44:07.752Z,65.96
2019-05-03T13:45:07.652Z,66.72
2019-05-03T13:47:00.502Z,68.63
2019-05-03T13:48:00.406Z,69.87
2019-05-03T13:49:55.133Z,71.50
2019-05-03T13:50:55.033Z,71.66
2019-05-03T13:52:45.933Z,73.85
2019-05-03T13:53:45.921Z,75.18
2019-05-03T13:55:38.667Z,74.23
2019-05-03T13:56:38.553Z,72.13
2019-05-03T13:58:31.344Z,71.27
2019-05-03T13:59:31.261Z,71.18
2019-05-03T14:01:25.216Z,70.13
2019-05-03T14:02:24.065Z,70.16
2019-05-03T14:04:16.842Z,69.11
2019-05-03T14:05:16.857Z,68.26
2019-05-03T14:07:09.596Z,67.62
2019-05-03T14:08:09.480Z,66.79
2019-05-03T14:10:02.263Z,66.41
2019-05-03T14:11:02.186Z,66.60
2019-05-03T14:12:54.975Z,66.22
2019-05-03T14:13:55.301Z,65.26
2019-05-03T14:15:47.746Z,66.41
2019-05-03T14:16:47.738Z,66.79
2019-05-03T14:18:41.436Z,66.50
2019-05-03T14:19:40.494Z,66.89
2019-05-03T14:21:34.571Z,68.13
2019-05-03T14:22:33.223Z,68.67
2019-05-03T14:24:25.963Z,69.05
2019-05-03T14:25:25.916Z,68.73
2019-05-03T14:27:18.668Z,68.73
2019-05-03T14:28:18.597Z,69.21
2019-05-03T14:30:11.401Z,69.97
2019-05-03T14:31:11.337Z,70.54
2019-05-03T14:33:05.099Z,70.07
2019-05-03T14:34:06.019Z,71.31
2019-05-03T14:35:56.821Z,73.98
2019-05-03T14:36:56.751Z,74.61
2019-05-03T14:38:49.588Z,75.37
2019-05-03T14:39:49.561Z,74.71
2019-05-03T14:41:42.265Z,74.13
2019-05-03T14:42:42.202Z,74.04
2019-05-03T14:44:35.719Z,73.75
2019-05-03T14:45:35.114Z,73.08
2019-05-03T14:47:27.831Z,72.71
2019-05-03T14:48:27.764Z,73.08
2019-05-03T14:50:20.569Z,72.32
2019-05-03T14:51:20.500Z,71.46
2019-05-03T14:53:14.762Z,71.66
2019-05-03T14:54:14.522Z,71.08
2019-05-03T14:56:07.783Z,71.56
2019-05-03T14:57:05.917Z,70.98
2019-05-03T14:58:58.738Z,69.74
2019-05-03T14:59:58.643Z,69.49
2019-05-03T15:01:51.493Z,68.41
2019-05-03T15:02:51.390Z,68.79
2019-05-03T15:04:44.193Z,69.56
2019-05-03T15:05:44.124Z,69.27
2019-05-03T15:07:36.937Z,68.51
2019-05-03T15:08:36.824Z,69.08
2019-05-03T15:10:29.605Z,68.60
2019-05-03T15:11:29.527Z,69.17
2019-05-03T15:13:22.370Z,69.56
2019-05-03T15:14:22.296Z,69.90
2019-05-03T15:16:15.055Z,69.93
2019-05-03T15:17:15.005Z,70.19
2019-05-03T15:19:07.809Z,70.38
2019-05-03T15:20:07.690Z,70.47
2019-05-03T15:22:00.465Z,71.23
2019-05-03T15:23:00.394Z,70.42
2019-05-03T15:24:54.590Z,71.23
2019-05-03T15:25:54.633Z,71.52
2019-05-03T15:27:48.525Z,71.62
2019-05-03T15:28:45.803Z,71.33
2019-05-03T15:30:38.610Z,71.04
2019-05-03T15:31:38.519Z,71.72
2019-05-03T15:33:31.296Z,71.52
2019-05-03T15:34:31.217Z,72.48
2019-05-03T15:36:24.063Z,71.23
2019-05-03T15:37:25.484Z,72.09
2019-05-03T15:39:16.731Z,72.00
2019-05-03T15:40:16.663Z,72.09
2019-05-03T15:42:09.458Z,72.86
2019-05-03T15:43:09.359Z,73.33
2019-05-03T15:45:02.187Z,73.72
2019-05-03T15:46:02.239Z,73.81
2019-05-03T15:47:55.024Z,73.33
2019-05-03T15:48:55.229Z,73.62
2019-05-03T15:50:47.730Z,74.10
2019-05-03T15:51:47.566Z,73.72
2019-05-03T15:53:40.349Z,73.81
2019-05-03T15:54:40.301Z,73.91
2019-05-03T15:56:33.075Z,73.72
2019-05-03T15:57:33.008Z,73.62
2019-05-03T15:59:25.773Z,75.15
2019-05-03T16:00:25.715Z,74.19
2019-05-03T16:02:18.488Z,74.29
2019-05-03T16:03:18.396Z,74.10
2019-05-03T16:05:11.208Z,74.57
2019-05-03T16:06:11.106Z,74.57
2019-05-03T16:08:04.635Z,74.57
2019-05-03T16:09:04.582Z,74.38
2019-05-03T16:10:56.620Z,74.48
2019-05-03T16:11:56.534Z,74.19
2019-05-03T16:13:49.326Z,75.18
2019-05-03T16:14:49.282Z,75.09
2019-05-03T16:16:42.420Z,73.94
2019-05-03T16:17:42.340Z,74.04
2019-05-03T16:19:35.470Z,73.66
2019-05-03T16:20:39.179Z,73.75
2019-05-03T16:22:27.844Z,73.18
2019-05-03T16:23:27.778Z,72.89
2019-05-03T16:25:20.577Z,73.85
2019-05-03T16:26:20.471Z,73.75
2019-05-03T16:28:15.157Z,73.75
2019-05-03T16:29:14.971Z,73.43
2019-05-03T16:31:05.969Z,73.62
2019-05-03T16:32:05.891Z,73.91
2019-05-03T16:33:58.640Z,74.10
2019-05-03T16:34:58.587Z,73.81
2019-05-03T16:36:51.364Z,74.10
2019-05-03T16:37:51.273Z,73.72
2019-05-03T16:39:45.425Z,73.33
2019-05-03T16:40:45.164Z,72.86
2019-05-03T16:42:36.771Z,72.96
2019-05-03T16:43:36.695Z,73.33
2019-05-03T16:45:29.493Z,73.72
2019-05-03T16:46:29.408Z,73.24
2019-05-03T16:48:22.881Z,73.52
2019-05-03T16:49:22.123Z,73.52
2019-05-03T16:51:17.165Z,73.14
2019-05-03T16:52:17.379Z,73.81
2019-05-03T16:54:07.676Z,74.10
2019-05-03T16:55:07.642Z,75.15
2019-05-03T16:57:00.409Z,74.19
2019-05-03T16:58:00.332Z,74.01
2019-05-03T16:59:55.027Z,74.67
2019-05-03T17:00:55.168Z,75.05
2019-05-03T17:02:46.140Z,74.96
2019-05-03T17:03:46.083Z,74.10
2019-05-03T17:05:38.842Z,74.19
2019-05-03T17:06:39.363Z,74.29
2019-05-03T17:08:31.644Z,73.91
2019-05-03T17:09:31.478Z,74.77
2019-05-03T17:11:24.300Z,74.57
2019-05-03T17:12:25.663Z,74.48
2019-05-03T17:14:17.047Z,74.48
2019-05-03T17:15:16.976Z,73.96
2019-05-03T17:17:09.771Z,74.82
2019-05-03T17:18:09.779Z,74.54
2019-05-03T17:20:02.510Z,74.82
2019-05-03T17:21:02.422Z,75.11
2019-05-03T17:22:55.565Z,74.25
2019-05-03T17:23:55.096Z,74.63
2019-05-03T17:25:47.930Z,74.82
2019-05-03T17:26:47.832Z,73.87
2019-05-03T17:28:41.088Z,75.01
2019-05-03T17:29:40.956Z,76.06
2019-05-03T17:31:35.205Z,75.87
2019-05-03T17:32:35.115Z,75.78
2019-05-03T17:34:26.575Z,76.82
2019-05-03T17:35:26.448Z,75.87
2019-05-03T17:37:19.712Z,76.44
2019-05-03T17:38:19.413Z,75.96
2019-05-03T17:40:12.243Z,75.78
2019-05-03T17:41:12.178Z,76.06
2019-05-03T17:43:05.083Z,75.87
2019-05-03T17:44:05.014Z,75.68
2019-05-03T17:45:57.869Z,76.35
2019-05-03T17:46:57.612Z,75.87
2019-05-03T17:48:50.444Z,76.64
2019-05-03T17:49:50.385Z,76.64
2019-05-03T17:51:43.107Z,76.44
2019-05-03T17:52:45.018Z,76.92
2019-05-03T17:54:35.820Z,76.73
2019-05-03T17:55:35.741Z,76.64
2019-05-03T17:57:28.541Z,76.64
2019-05-03T17:58:28.462Z,76.64
2019-05-03T18:00:21.335Z,76.64
2019-05-03T18:01:22.259Z,76.73
2019-05-03T18:03:14.367Z,77.49
2019-05-03T18:04:15.761Z,76.92
2019-05-03T18:06:06.832Z,77.49
2019-05-03T18:07:06.764Z,77.69
2019-05-03T18:08:59.580Z,77.69
2019-05-03T18:09:59.493Z,77.69
2019-05-03T18:12:52.279Z,77.30
2019-05-03T18:14:45.134Z,78.44
2019-05-03T18:15:45.007Z,77.01
2019-05-03T18:17:37.862Z,78.44
2019-05-03T18:18:37.724Z,78.16
2019-05-03T18:20:30.577Z,78.16
2019-05-03T18:21:30.431Z,78.73
2019-05-03T18:23:24.617Z,79.21
2019-05-03T18:24:24.750Z,78.44
2019-05-03T18:26:16.063Z,79.40
2019-05-03T18:27:16.552Z,79.17
2019-05-03T18:29:08.791Z,80.07
2019-05-03T18:30:08.785Z,79.36
2019-05-03T18:32:01.530Z,80.12
2019-05-03T18:33:01.427Z,79.64